createdAt,value
2018-02-05T00:00:12.169Z,17.10
2018-02-05T00:02:39.700Z,17.05
2018-02-05T00:05:07.369Z,18.83
2018-02-05T00:07:34.968Z,16.08
2018-02-05T00:10:02.576Z,16.85
2018-02-05T00:12:30.245Z,17.58
2018-02-05T00:14:58.013Z,18.17
2018-02-05T00:17:26.300Z,18.98
2018-02-05T00:19:54.181Z,16.48
2018-02-05T00:22:21.862Z,15.10
2018-02-05T00:24:49.386Z,16.70
2018-02-05T00:27:18.558Z,16.00
2018-02-05T00:29:46.447Z,16.48
2018-02-05T00:32:14.186Z,16.20
2018-02-05T00:34:42.469Z,15.18
2018-02-05T00:37:10.368Z,13.85
2018-02-05T00:39:37.882Z,16.08
2018-02-05T00:42:06.157Z,16.33
2018-02-05T00:44:33.694Z,14.68
2018-02-05T00:47:01.224Z,15.73
2018-02-05T00:49:28.735Z,14.45
2018-02-05T00:51:57.018Z,14.45
2018-02-05T00:54:25.334Z,14.87
2018-02-05T00:56:52.896Z,14.50
2018-02-05T00:59:20.426Z,13.35
2018-02-05T01:01:48.693Z,14.32
2018-02-05T01:04:16.973Z,14.93
2018-02-05T01:06:45.270Z,14.60
2018-02-05T01:09:13.293Z,14.10
2018-02-05T01:11:40.808Z,14.18
2018-02-05T01:14:08.324Z,16.15
2018-02-05T01:16:35.823Z,14.45
2018-02-05T01:19:03.376Z,14.85
2018-02-05T01:21:30.956Z,15.18
2018-02-05T01:23:58.491Z,13.23
2018-02-05T01:26:26.778Z,13.13
2018-02-05T01:28:54.328Z,14.38
2018-02-05T01:31:21.841Z,14.32
2018-02-05T01:33:49.753Z,13.32
2018-02-05T01:36:18.033Z,13.30
2018-02-05T01:38:45.559Z,15.50
2018-02-05T01:41:13.172Z,13.20
2018-02-05T01:43:40.718Z,12.13
2018-02-05T01:46:08.222Z,12.45
2018-02-05T01:48:35.767Z,14.20
2018-02-05T01:51:03.319Z,14.18
2018-02-05T01:53:30.873Z,13.38
2018-02-05T01:55:58.430Z,12.80
2018-02-05T01:58:25.944Z,15.25
2018-02-05T02:00:53.557Z,14.55
2018-02-05T02:03:21.090Z,15.57
2018-02-05T02:05:49.495Z,13.18
2018-02-05T02:08:17.030Z,13.60
2018-02-05T02:10:45.341Z,15.65
2018-02-05T02:13:13.214Z,15.18
2018-02-05T02:15:40.738Z,14.85
2018-02-05T02:18:09.045Z,16.10
2018-02-05T02:20:36.579Z,14.48
2018-02-05T02:23:05.008Z,14.25
2018-02-05T02:25:32.533Z,14.87
2018-02-05T02:28:00.160Z,16.20
2018-02-05T02:30:27.688Z,14.50
2018-02-05T02:32:55.187Z,15.10
2018-02-05T02:35:23.487Z,15.52
2018-02-05T02:37:50.998Z,15.60
2018-02-05T02:40:18.610Z,14.85
2018-02-05T02:42:46.127Z,15.57
2018-02-05T02:45:15.979Z,16.52
2018-02-05T02:47:43.521Z,15.68
2018-02-05T02:50:11.819Z,15.32
2018-02-05T02:52:39.326Z,15.50
2018-02-05T02:55:06.845Z,15.65
2018-02-05T02:57:34.364Z,16.80
2018-02-05T03:00:01.981Z,15.25
2018-02-05T03:02:29.510Z,17.00
2018-02-05T03:04:57.791Z,16.50
2018-02-05T03:07:26.867Z,16.52
2018-02-05T03:09:54.374Z,16.12
2018-02-05T03:12:21.903Z,15.65
2018-02-05T03:14:50.178Z,15.60
2018-02-05T03:17:18.573Z,14.45
2018-02-05T03:19:46.137Z,15.68
2018-02-05T03:22:13.693Z,15.07
2018-02-05T03:24:41.266Z,15.90
2018-02-05T03:27:08.827Z,15.32
2018-02-05T03:29:36.372Z,16.02
2018-02-05T03:32:03.893Z,17.45
2018-02-05T03:34:31.390Z,17.80
2018-02-05T03:36:58.898Z,18.20
2018-02-05T03:39:26.422Z,18.37
2018-02-05T03:41:53.917Z,17.85
2018-02-05T03:44:21.438Z,16.98
2018-02-05T03:46:48.990Z,16.92
2018-02-05T03:49:17.275Z,16.83
2018-02-05T03:51:44.798Z,17.83
2018-02-05T03:54:13.090Z,16.58
2018-02-05T03:56:41.369Z,16.27
2018-02-05T03:59:09.662Z,17.30
2018-02-05T04:01:37.235Z,17.42
2018-02-05T04:04:04.792Z,16.05
2018-02-05T04:06:32.301Z,16.45
2018-02-05T04:08:59.810Z,17.52
2018-02-05T04:11:27.319Z,17.42
2018-02-05T04:13:54.831Z,16.40
2018-02-05T04:16:22.338Z,16.20
2018-02-05T04:18:50.680Z,16.15
2018-02-05T04:21:18.185Z,16.90
2018-02-05T04:23:45.709Z,16.35
2018-02-05T04:26:13.244Z,15.27
2018-02-05T04:28:40.759Z,15.32
2018-02-05T04:31:08.285Z,16.02
2018-02-05T04:33:35.803Z,15.52
2018-02-05T04:36:04.151Z,15.15
2018-02-05T04:38:31.701Z,15.13
2018-02-05T04:40:59.227Z,16.52
2018-02-05T04:43:26.739Z,14.85
2018-02-05T04:45:54.262Z,15.05
2018-02-05T04:48:21.805Z,15.20
2018-02-05T04:50:49.374Z,16.45
2018-02-05T04:53:16.897Z,15.70
2018-02-05T04:55:45.300Z,16.42
2018-02-05T04:58:12.936Z,14.35
2018-02-05T05:00:40.417Z,16.90
2018-02-05T05:03:07.923Z,16.42
2018-02-05T05:05:35.541Z,16.15
2018-02-05T05:08:03.103Z,16.48
2018-02-05T05:10:30.621Z,15.48
2018-02-05T05:12:58.158Z,14.93
2018-02-05T05:15:25.692Z,15.40
2018-02-05T05:17:53.215Z,16.62
2018-02-05T05:20:21.531Z,14.63
2018-02-05T05:22:49.106Z,15.55
2018-02-05T05:25:16.644Z,15.10
2018-02-05T05:27:44.170Z,14.35
2018-02-05T05:30:11.687Z,14.00
2018-02-05T05:32:39.225Z,14.52
2018-02-05T05:35:06.736Z,14.85
2018-02-05T05:37:34.347Z,15.02
2018-02-05T05:40:01.898Z,12.95
2018-02-05T05:42:29.417Z,14.65
2018-02-05T05:44:57.018Z,14.98
2018-02-05T05:47:24.583Z,14.35
2018-02-05T05:49:52.093Z,14.85
2018-02-05T05:52:19.595Z,15.55
2018-02-05T05:54:47.876Z,15.23
2018-02-05T05:57:15.385Z,15.95
2018-02-05T05:59:42.916Z,15.13
2018-02-05T06:02:10.473Z,17.27
2018-02-05T06:04:38.039Z,14.90
2018-02-05T06:07:05.597Z,15.02
2018-02-05T06:09:33.151Z,16.75
2018-02-05T06:12:00.708Z,16.08
2018-02-05T06:14:28.222Z,17.30
2018-02-05T06:16:55.726Z,15.55
2018-02-05T06:19:23.297Z,17.00
2018-02-05T06:21:50.841Z,15.23
2018-02-05T06:24:18.884Z,20.08
2018-02-05T06:26:46.483Z,27.65
2018-02-05T06:29:13.999Z,21.17
2018-02-05T06:31:41.503Z,17.08
2018-02-05T06:34:09.026Z,15.70
2018-02-05T06:36:37.302Z,15.60
2018-02-05T06:39:04.838Z,14.38
2018-02-05T06:41:32.451Z,15.60
2018-02-05T06:44:00.020Z,15.57
2018-02-05T06:46:27.630Z,15.75
2018-02-05T06:48:55.142Z,16.27
2018-02-05T06:51:34.578Z,14.07
2018-02-05T06:54:14.242Z,16.55
2018-02-05T06:56:41.758Z,14.50
2018-02-05T06:59:10.068Z,14.80
2018-02-05T07:01:37.709Z,16.10
2018-02-05T07:04:05.997Z,15.32
2018-02-05T07:06:33.542Z,15.90
2018-02-05T07:09:01.849Z,14.82
2018-02-05T07:11:29.397Z,15.73
2018-02-05T07:13:56.911Z,15.15
2018-02-05T07:16:24.406Z,15.32
2018-02-05T07:18:52.701Z,13.93
2018-02-05T07:21:20.214Z,16.23
2018-02-05T07:23:47.810Z,13.82
2018-02-05T07:26:15.314Z,16.33
2018-02-05T07:28:42.820Z,16.20
2018-02-05T07:31:11.114Z,17.08
2018-02-05T07:33:38.614Z,15.95
2018-02-05T07:36:06.519Z,14.87
2018-02-05T07:38:34.806Z,15.63
2018-02-05T07:41:02.325Z,13.82
2018-02-05T07:43:29.850Z,14.85
2018-02-05T07:45:57.394Z,15.80
2018-02-05T07:48:24.906Z,15.00
2018-02-05T07:50:52.515Z,14.20
2018-02-05T07:53:20.089Z,13.90
2018-02-05T07:55:47.709Z,12.55
2018-02-05T07:58:15.194Z,12.88
2018-02-05T08:00:42.717Z,13.02
2018-02-05T08:03:10.242Z,12.15
2018-02-05T08:05:37.757Z,13.82
2018-02-05T08:08:06.045Z,13.27
2018-02-05T08:10:33.567Z,13.20
2018-02-05T08:13:01.077Z,13.07
2018-02-05T08:15:28.642Z,12.13
2018-02-05T08:17:56.159Z,13.05
2018-02-05T08:20:23.771Z,12.50
2018-02-05T08:22:51.324Z,13.40
2018-02-05T08:25:18.838Z,14.30
2018-02-05T08:27:46.350Z,13.55
2018-02-05T08:30:13.876Z,13.45
2018-02-05T08:32:42.442Z,13.15
2018-02-05T08:35:10.159Z,13.00
2018-02-05T08:37:38.143Z,12.80
2018-02-05T08:40:06.020Z,11.52
2018-02-05T08:42:33.538Z,13.18
2018-02-05T08:45:01.109Z,13.05
2018-02-05T08:47:28.663Z,13.80
2018-02-05T08:49:56.342Z,14.05
2018-02-05T08:52:23.869Z,13.95
2018-02-05T08:54:52.339Z,13.23
2018-02-05T08:57:19.947Z,12.95
2018-02-05T08:59:47.474Z,12.70
2018-02-05T09:02:15.779Z,14.35
2018-02-05T09:04:43.339Z,13.43
2018-02-05T09:07:10.842Z,13.25
2018-02-05T09:09:38.610Z,12.85
2018-02-05T09:12:06.164Z,12.60
2018-02-05T09:14:33.819Z,14.60
2018-02-05T09:17:01.454Z,14.93
2018-02-05T09:19:29.067Z,13.73
2018-02-05T09:21:57.484Z,13.18
2018-02-05T09:24:25.322Z,14.38
2018-02-05T09:26:53.995Z,13.38
2018-02-05T09:29:22.400Z,14.07
2018-02-05T09:31:50.698Z,13.30
2018-02-05T09:34:18.223Z,12.70
2018-02-05T09:36:45.807Z,13.77
2018-02-05T09:39:14.234Z,13.88
2018-02-05T09:41:41.772Z,13.90
2018-02-05T09:44:09.328Z,14.23
2018-02-05T09:46:36.843Z,15.18
2018-02-05T09:49:04.337Z,15.60
2018-02-05T09:51:31.884Z,15.75
2018-02-05T09:54:00.150Z,13.57
2018-02-05T09:56:28.463Z,21.65
2018-02-05T09:58:55.977Z,38.42
2018-02-05T10:01:23.562Z,14.30
2018-02-05T10:03:51.138Z,15.15
2018-02-05T10:06:18.703Z,16.83
2018-02-05T10:08:46.223Z,17.27
2018-02-05T10:11:13.814Z,14.27
2018-02-05T10:13:41.333Z,24.08
2018-02-05T10:16:08.876Z,16.73
2018-02-05T10:18:36.414Z,15.75
2018-02-05T10:21:03.960Z,16.55
2018-02-05T10:23:31.484Z,18.83
2018-02-05T10:25:59.800Z,19.12
2018-02-05T10:28:27.381Z,17.27
2018-02-05T10:30:54.951Z,17.85
2018-02-05T10:33:22.470Z,16.50
2018-02-05T10:35:49.997Z,19.48
2018-02-05T10:38:17.507Z,16.48
2018-02-05T10:40:45.020Z,15.77
2018-02-05T10:43:12.616Z,16.12
2018-02-05T10:45:40.127Z,17.52
2018-02-05T10:48:07.662Z,14.93
2018-02-05T10:50:35.189Z,16.05
2018-02-05T10:53:02.861Z,14.18
2018-02-05T10:55:30.431Z,15.15
2018-02-05T10:57:57.975Z,16.77
2018-02-05T11:00:25.573Z,16.05
2018-02-05T11:02:53.115Z,15.27
2018-02-05T11:05:21.705Z,14.23
2018-02-05T11:07:49.259Z,17.12
2018-02-05T11:10:16.817Z,17.77
2018-02-05T11:12:44.389Z,15.25
2018-02-05T11:15:12.041Z,13.52
2018-02-05T11:17:39.561Z,13.10
2018-02-05T11:20:07.912Z,13.55
2018-02-05T11:22:36.242Z,12.40
2018-02-05T11:25:03.848Z,11.50
2018-02-05T11:27:32.187Z,12.98
2018-02-05T11:29:59.700Z,12.70
2018-02-05T11:32:27.294Z,12.82
2018-02-05T11:34:55.584Z,12.80
2018-02-05T11:37:23.138Z,12.57
2018-02-05T11:39:50.642Z,14.15
2018-02-05T11:42:18.146Z,16.42
2018-02-05T11:44:46.490Z,12.68
2018-02-05T11:47:14.000Z,16.20
2018-02-05T11:49:41.544Z,15.07
2018-02-05T11:52:09.972Z,16.23
2018-02-05T11:54:37.604Z,18.83
2018-02-05T11:57:05.398Z,15.53
2018-02-05T11:59:32.900Z,16.12
2018-02-05T12:02:00.513Z,15.73
2018-02-05T12:04:28.087Z,16.12
2018-02-05T12:06:55.602Z,15.68
2018-02-05T12:09:23.102Z,16.80
2018-02-05T12:11:50.610Z,17.30
2018-02-05T12:14:19.006Z,17.65
2018-02-05T12:16:46.521Z,15.70
2018-02-05T12:19:14.148Z,15.73
2018-02-05T12:21:41.657Z,15.40
2018-02-05T12:24:09.246Z,15.15
2018-02-05T12:26:36.782Z,17.75
2018-02-05T12:29:04.287Z,16.20
2018-02-05T12:31:31.891Z,17.30
2018-02-05T12:34:00.186Z,15.05
2018-02-05T12:36:28.478Z,15.57
2018-02-05T12:38:55.986Z,16.45
2018-02-05T12:41:23.499Z,14.98
2018-02-05T12:43:51.839Z,16.60
2018-02-05T12:46:19.366Z,14.82
2018-02-05T12:48:46.890Z,14.60
2018-02-05T12:51:15.286Z,15.25
2018-02-05T12:53:42.790Z,15.63
2018-02-05T12:56:10.318Z,14.73
2018-02-05T12:58:37.817Z,16.15
2018-02-05T13:14:25.779Z,16.30
2018-02-05T13:16:54.221Z,16.17
2018-02-05T13:19:21.756Z,16.08
2018-02-05T13:21:49.408Z,16.40
2018-02-05T13:24:16.931Z,14.30
2018-02-05T13:26:45.226Z,14.75
2018-02-05T13:29:12.735Z,14.93
2018-02-05T13:31:40.259Z,16.08
2018-02-05T13:34:07.771Z,14.45
2018-02-05T13:36:35.298Z,14.35
2018-02-05T13:39:02.825Z,14.07
2018-02-05T13:41:31.235Z,14.20
2018-02-05T13:43:58.860Z,13.85
2018-02-05T13:46:27.142Z,13.25
2018-02-05T13:48:55.435Z,13.70
2018-02-05T13:51:22.960Z,14.95
2018-02-05T13:53:51.284Z,13.48
2018-02-05T13:56:18.827Z,15.82
2018-02-05T13:58:46.337Z,14.63
2018-02-05T14:01:13.962Z,14.23
2018-02-05T14:03:41.525Z,15.13
2018-02-05T14:06:09.090Z,13.13
2018-02-05T14:08:36.644Z,13.20
2018-02-05T14:11:04.155Z,12.63
2018-02-05T14:13:31.759Z,12.50
2018-02-05T14:15:59.285Z,12.37
2018-02-05T14:18:27.577Z,13.32
2018-02-05T14:20:55.867Z,13.40
2018-02-05T14:23:23.409Z,13.70
2018-02-05T14:25:51.718Z,12.88
2018-02-05T14:28:19.283Z,24.87
2018-02-05T14:30:46.831Z,15.25
2018-02-05T14:33:14.404Z,28.35
2018-02-05T14:35:41.915Z,19.37
2018-02-05T14:38:09.515Z,14.77
2018-02-05T14:40:37.068Z,14.43
2018-02-05T14:43:04.596Z,14.75
2018-02-05T14:45:32.177Z,13.35
2018-02-05T14:47:59.781Z,21.37
2018-02-05T14:50:27.332Z,15.43
2018-02-05T14:52:54.867Z,12.90
2018-02-05T14:55:22.394Z,14.60
2018-02-05T14:57:49.925Z,15.90
2018-02-05T15:00:17.453Z,16.33
2018-02-05T15:02:45.026Z,17.77
2018-02-05T15:05:12.578Z,19.08
2018-02-05T15:07:40.154Z,21.12
2018-02-05T15:10:07.680Z,19.45
2018-02-05T15:12:35.963Z,27.13
2018-02-05T15:15:03.542Z,14.95
2018-02-05T15:17:31.110Z,20.52
2018-02-05T15:19:58.639Z,14.77
2018-02-05T15:22:27.013Z,14.95
2018-02-05T15:24:55.316Z,19.85
2018-02-05T15:27:22.915Z,11.65
2018-02-05T15:29:50.424Z,13.25
2018-02-05T15:32:18.808Z,15.90
2018-02-05T15:34:46.347Z,11.68
2018-02-05T15:37:14.636Z,12.85
2018-02-05T15:39:42.930Z,12.30
2018-02-05T15:42:10.535Z,13.00
2018-02-05T15:44:38.041Z,11.18
2018-02-05T15:47:05.611Z,14.25
2018-02-05T15:49:33.156Z,16.55
2018-02-05T15:52:01.472Z,10.52
2018-02-05T15:54:29.046Z,9.13
2018-02-05T15:56:56.586Z,8.10
2018-02-05T15:59:24.159Z,8.02
2018-02-05T16:01:51.814Z,8.57
2018-02-05T16:04:19.657Z,10.65
2018-02-05T16:06:47.318Z,8.25
2018-02-05T16:09:15.010Z,9.20
2018-02-05T16:11:42.608Z,9.20
2018-02-05T16:14:10.238Z,7.10
2018-02-05T16:16:37.784Z,7.80
2018-02-05T16:19:05.656Z,9.35
2018-02-05T16:21:33.415Z,8.68
2018-02-05T16:24:00.980Z,9.75
2018-02-05T16:26:29.617Z,8.48
2018-02-05T16:28:58.294Z,8.32
2018-02-05T16:31:26.345Z,7.72
2018-02-05T16:33:54.031Z,8.77
2018-02-05T16:36:22.065Z,8.02
2018-02-05T16:38:49.834Z,8.13
2018-02-05T16:41:17.584Z,8.30
2018-02-05T16:43:45.271Z,8.00
2018-02-05T16:46:12.919Z,8.73
2018-02-05T16:48:40.604Z,7.68
2018-02-05T16:51:08.135Z,8.07
2018-02-05T16:53:36.342Z,7.60
2018-02-05T16:56:04.043Z,8.27
2018-02-05T16:58:32.361Z,8.88
2018-02-05T17:01:01.051Z,8.57
2018-02-05T17:03:28.928Z,7.60
2018-02-05T17:05:57.158Z,6.75
2018-02-05T17:08:25.051Z,7.78
2018-02-05T17:10:52.626Z,8.05
2018-02-05T17:13:20.968Z,7.00
2018-02-05T17:15:48.833Z,9.43
2018-02-05T17:18:17.279Z,7.75
2018-02-05T17:20:45.138Z,7.65
2018-02-05T17:23:12.959Z,8.23
2018-02-05T17:25:40.860Z,7.95
2018-02-05T17:28:09.438Z,7.80
2018-02-05T17:30:38.635Z,7.85
2018-02-05T17:35:59.778Z,7.72
2018-02-05T17:38:27.377Z,8.20
2018-02-05T17:40:55.251Z,8.52
2018-02-05T17:43:23.205Z,9.80
2018-02-05T17:45:51.662Z,7.82
2018-02-05T17:48:19.630Z,8.07
2018-02-05T17:50:47.569Z,8.65
2018-02-05T17:53:15.161Z,8.45
2018-02-05T17:55:43.264Z,8.13
2018-02-05T17:58:11.772Z,8.43
2018-02-05T18:00:40.152Z,9.55
2018-02-05T18:03:08.573Z,8.70
2018-02-05T18:05:36.336Z,8.20
2018-02-05T18:08:03.969Z,9.05
2018-02-05T18:10:31.597Z,8.27
2018-02-05T18:12:59.629Z,9.68
2018-02-05T18:15:27.903Z,10.00
2018-02-05T18:17:55.789Z,9.23
2018-02-05T18:20:23.314Z,8.60
2018-02-05T18:22:50.902Z,9.23
2018-02-05T18:25:18.409Z,9.57
2018-02-05T18:27:46.767Z,9.25
2018-02-05T18:30:14.398Z,9.48
2018-02-05T18:32:42.158Z,9.25
2018-02-05T18:35:10.489Z,9.55
2018-02-05T18:37:38.150Z,9.43
2018-02-05T18:40:05.677Z,9.85
2018-02-05T18:42:33.254Z,8.20
2018-02-05T18:45:01.055Z,12.15
2018-02-05T18:47:29.354Z,9.75
2018-02-05T18:49:56.959Z,9.63
2018-02-05T18:52:24.584Z,8.95
2018-02-05T18:54:52.185Z,8.98
2018-02-05T18:57:19.727Z,9.20
2018-02-05T18:59:47.246Z,8.77
2018-02-05T19:05:07.519Z,9.93
2018-02-05T19:07:35.676Z,10.55
2018-02-05T19:10:03.559Z,9.75
2018-02-05T19:12:33.645Z,9.75
2018-02-05T19:15:01.243Z,10.00
2018-02-05T19:17:29.174Z,10.38
2018-02-05T19:19:56.910Z,10.02
2018-02-05T19:22:26.040Z,9.35
2018-02-05T19:24:55.356Z,9.95
2018-02-05T19:27:24.875Z,10.02
2018-02-05T19:29:53.523Z,10.48
2018-02-05T19:32:21.198Z,8.98
2018-02-05T19:35:02.175Z,10.48
2018-02-05T19:37:30.036Z,8.20
2018-02-05T19:39:57.701Z,12.18
2018-02-05T19:42:26.111Z,12.57
2018-02-05T19:44:54.532Z,12.50
2018-02-05T19:47:23.041Z,25.00
2018-02-05T19:49:51.632Z,13.48
2018-02-05T19:52:19.188Z,13.80
2018-02-05T19:54:46.770Z,12.80
2018-02-05T19:57:14.533Z,11.55
2018-02-05T19:59:42.906Z,11.12
2018-02-05T20:02:11.295Z,15.45
2018-02-05T20:04:39.046Z,17.37
2018-02-05T20:07:06.618Z,18.15
2018-02-05T20:09:34.203Z,16.60
2018-02-05T20:12:01.779Z,15.55
2018-02-05T20:14:30.240Z,16.48
2018-02-05T20:16:57.799Z,11.93
2018-02-05T20:19:25.457Z,12.57
2018-02-05T20:21:53.099Z,10.27
2018-02-05T20:24:20.643Z,12.43
2018-02-05T20:26:48.201Z,11.77
2018-02-05T20:29:15.785Z,10.82
2018-02-05T20:31:43.546Z,10.95
2018-02-05T20:34:11.470Z,12.02
2018-02-05T20:36:40.150Z,10.80
2018-02-05T20:39:07.952Z,10.55
2018-02-05T20:41:35.710Z,9.70
2018-02-05T20:44:03.324Z,9.45
2018-02-05T20:46:31.878Z,8.70
2018-02-05T20:48:59.949Z,8.63
2018-02-05T20:51:27.625Z,9.80
2018-02-05T20:53:55.230Z,8.52
2018-02-05T20:56:23.632Z,8.00
2018-02-05T20:58:51.179Z,9.90
2018-02-05T21:01:19.795Z,8.85
2018-02-05T21:03:47.409Z,8.98
2018-02-05T21:06:15.761Z,9.52
2018-02-05T21:08:43.334Z,9.23
2018-02-05T21:11:10.985Z,8.93
2018-02-05T21:13:38.527Z,8.43
2018-02-05T21:16:06.442Z,9.93
2018-02-05T21:18:34.739Z,8.73
2018-02-05T21:21:02.541Z,8.20
2018-02-05T21:23:30.102Z,8.60
2018-02-05T21:25:57.666Z,8.85
2018-02-05T21:28:25.301Z,8.63
2018-02-05T21:30:52.984Z,8.48
2018-02-05T21:33:20.808Z,9.02
2018-02-05T21:35:49.230Z,7.82
2018-02-05T21:38:16.927Z,7.20
2018-02-05T21:40:45.586Z,8.00
2018-02-05T21:43:13.969Z,7.20
2018-02-05T21:45:41.498Z,8.15
2018-02-05T21:48:09.075Z,7.85
2018-02-05T21:50:36.859Z,8.05
2018-02-05T21:53:04.456Z,8.30
2018-02-05T21:55:31.984Z,7.85
2018-02-05T21:57:59.566Z,7.65
2018-02-05T22:00:27.395Z,7.12
2018-02-05T22:02:55.180Z,7.50
2018-02-05T22:05:23.092Z,7.10
2018-02-05T22:07:51.948Z,7.97
2018-02-05T22:10:19.507Z,7.32
2018-02-05T22:12:47.046Z,8.30
2018-02-05T22:15:14.612Z,7.55
2018-02-05T22:17:42.153Z,7.10
2018-02-05T22:20:09.777Z,8.30
2018-02-05T22:22:37.305Z,7.57
2018-02-05T22:25:04.832Z,8.00
2018-02-05T22:27:32.401Z,8.82
2018-02-05T22:29:59.963Z,7.95
2018-02-05T22:32:27.525Z,7.90
2018-02-05T22:34:55.082Z,9.20
2018-02-05T22:37:22.604Z,7.22
2018-02-05T22:39:50.920Z,7.93
2018-02-05T22:42:18.481Z,7.32
2018-02-05T22:44:46.860Z,8.05
2018-02-05T22:47:14.453Z,7.40
2018-02-05T22:49:42.046Z,8.20
2018-02-05T22:52:12.615Z,6.93
2018-02-05T22:54:41.117Z,7.60
2018-02-05T22:57:09.275Z,7.12
2018-02-05T22:59:37.657Z,7.72
2018-02-05T23:02:05.832Z,7.28
2018-02-05T23:04:35.440Z,7.87
2018-02-05T23:09:58.001Z,7.37
2018-02-05T23:12:27.032Z,7.70
2018-02-05T23:14:54.869Z,7.00
2018-02-05T23:17:22.531Z,7.32
2018-02-05T23:19:51.319Z,8.38
2018-02-05T23:22:19.801Z,7.65
2018-02-05T23:24:47.920Z,7.47
2018-02-05T23:27:16.076Z,6.57
2018-02-05T23:29:44.526Z,6.85
2018-02-05T23:32:12.064Z,7.12
2018-02-05T23:34:40.382Z,7.25
2018-02-05T23:37:07.943Z,7.30
2018-02-05T23:39:35.489Z,7.10
2018-02-05T23:42:03.046Z,7.30
2018-02-05T23:44:30.581Z,7.32
2018-02-05T23:46:58.897Z,7.82
2018-02-05T23:49:26.452Z,8.30
2018-02-05T23:51:54.009Z,7.70
2018-02-05T23:54:21.582Z,7.82
2018-02-05T23:56:49.137Z,6.32
2018-02-05T23:59:16.682Z,7.57
